createdAt,value
2018-09-28T00:00:44.050Z,45.20
2018-09-28T00:03:15.789Z,45.30
2018-09-28T00:05:46.921Z,45.50
2018-09-28T00:08:17.774Z,45.60
2018-09-28T00:10:48.633Z,45.80
2018-09-28T00:13:19.703Z,45.70
2018-09-28T00:15:51.114Z,45.70
2018-09-28T00:18:22.912Z,45.80
2018-09-28T00:20:55.049Z,45.80
2018-09-28T00:23:25.392Z,45.70
2018-09-28T00:25:57.499Z,45.70
2018-09-28T00:28:30.121Z,45.60
2018-09-28T00:31:00.125Z,45.60
2018-09-28T00:33:34.046Z,45.60
2018-09-28T00:36:04.220Z,45.60
2018-09-28T00:38:35.891Z,45.60
2018-09-28T00:41:07.661Z,45.50
2018-09-28T00:43:38.326Z,45.40
2018-09-28T00:46:09.142Z,45.40
2018-09-28T00:48:39.368Z,45.50
2018-09-28T00:51:14.280Z,45.50
2018-09-28T00:53:44.469Z,45.30
2018-09-28T00:56:15.870Z,45.40
2018-09-28T00:58:47.114Z,46.00
2018-09-28T01:01:17.330Z,45.30
2018-09-28T01:03:48.071Z,45.40
2018-09-28T01:06:19.955Z,45.40
2018-09-28T01:08:50.136Z,45.40
2018-09-28T01:11:21.314Z,45.40
2018-09-28T01:13:56.182Z,45.30
2018-09-28T01:16:28.081Z,45.30
2018-09-28T01:18:59.636Z,45.40
2018-09-28T01:21:29.810Z,45.20
2018-09-28T01:24:00.008Z,45.20
2018-09-28T01:26:30.622Z,45.20
2018-09-28T01:29:01.647Z,45.20
2018-09-28T01:31:34.345Z,45.20
2018-09-28T01:34:04.557Z,45.20
2018-09-28T01:36:36.421Z,45.20
2018-09-28T01:39:10.137Z,45.30
2018-09-28T01:41:40.356Z,45.60
2018-09-28T01:44:11.641Z,45.80
2018-09-28T01:46:41.802Z,46.10
2018-09-28T01:49:15.042Z,46.40
2018-09-28T01:51:45.010Z,46.60
2018-09-28T01:54:16.155Z,46.90
2018-09-28T01:56:47.048Z,47.00
2018-09-28T01:59:19.657Z,47.20
2018-09-28T02:01:49.646Z,47.20
2018-09-28T02:04:20.678Z,47.40
2018-09-28T02:06:54.107Z,47.30
2018-09-28T02:09:24.951Z,47.30
2018-09-28T02:11:54.939Z,47.40
2018-09-28T02:14:26.686Z,47.40
2018-09-28T02:17:08.421Z,47.50
2018-09-28T02:19:44.015Z,47.40
2018-09-28T02:22:15.765Z,47.40
2018-09-28T02:24:47.735Z,47.50
2018-09-28T02:27:17.871Z,47.60
2018-09-28T02:29:48.838Z,47.70
2018-09-28T02:32:22.592Z,47.70
2018-09-28T02:34:52.537Z,47.70
2018-09-28T02:37:23.329Z,47.70
2018-09-28T02:39:54.997Z,47.80
2018-09-28T02:42:27.464Z,47.80
2018-09-28T02:45:01.166Z,47.90
2018-09-28T02:47:32.348Z,47.90
2018-09-28T02:50:02.596Z,47.80
2018-09-28T02:52:32.650Z,48.00
2018-09-28T02:55:03.050Z,48.20
2018-09-28T02:57:35.592Z,48.30
2018-09-28T03:00:05.981Z,48.20
2018-09-28T03:02:37.019Z,48.20
2018-09-28T03:05:12.157Z,48.10
2018-09-28T03:07:42.280Z,47.90
2018-09-28T03:10:12.329Z,47.90
2018-09-28T03:12:42.887Z,48.00
2018-09-28T03:15:15.372Z,48.00
2018-09-28T03:17:45.811Z,48.00
2018-09-28T03:20:16.370Z,48.00
2018-09-28T03:22:48.608Z,48.10
2018-09-28T03:25:19.063Z,48.10
2018-09-28T03:27:50.486Z,48.20
2018-09-28T03:30:22.616Z,48.20
2018-09-28T03:32:54.637Z,48.30
2018-09-28T03:35:29.082Z,48.30
2018-09-28T03:40:44.183Z,48.30
2018-09-28T03:43:15.790Z,48.30
2018-09-28T03:45:50.691Z,48.30
2018-09-28T03:48:21.074Z,48.20
2018-09-28T03:53:34.633Z,48.00
2018-09-28T03:56:06.583Z,48.30
2018-09-28T03:58:38.960Z,48.30
2018-09-28T04:01:09.969Z,48.30
2018-09-28T04:03:40.972Z,48.30
2018-09-28T04:06:13.822Z,48.70
2018-09-28T04:08:58.165Z,48.70
2018-09-28T04:11:32.034Z,48.40
2018-09-28T04:14:02.786Z,48.40
2018-09-28T04:16:35.314Z,48.40
2018-09-28T04:19:08.512Z,48.40
2018-09-28T04:21:38.373Z,48.40
2018-09-28T04:24:08.776Z,48.50
2018-09-28T04:26:39.585Z,48.60
2018-09-28T04:29:09.440Z,48.80
2018-09-28T04:31:43.611Z,49.10
2018-09-28T04:34:14.781Z,49.30
2018-09-28T04:36:47.067Z,49.10
2018-09-28T04:39:16.997Z,49.20
2018-09-28T04:41:46.956Z,49.30
2018-09-28T04:47:09.922Z,49.30
2018-09-28T04:49:39.946Z,49.40
2018-09-28T04:53:20.585Z,49.40
2018-09-28T04:56:07.054Z,49.70
2018-09-28T04:58:43.853Z,49.60
2018-09-28T05:01:15.898Z,49.80
2018-09-28T05:03:46.080Z,50.00
2018-09-28T05:06:16.861Z,50.10
2018-09-28T05:08:49.533Z,50.10
2018-09-28T05:11:19.522Z,50.20
2018-09-28T05:13:49.526Z,50.30
2018-09-28T05:16:23.164Z,50.30
2018-09-28T05:18:57.613Z,50.30
2018-09-28T05:21:27.775Z,50.30
2018-09-28T05:23:58.842Z,50.40
2018-09-28T05:26:29.834Z,50.70
2018-09-28T05:28:59.906Z,51.00
2018-09-28T05:31:30.953Z,51.10
2018-09-28T05:34:00.831Z,51.20
2018-09-28T05:36:33.854Z,51.80
2018-09-28T05:39:08.196Z,51.40
2018-09-28T05:41:38.947Z,51.40
2018-09-28T05:44:10.884Z,51.40
2018-09-28T05:46:41.886Z,52.10
2018-09-28T05:49:13.260Z,51.50
2018-09-28T05:51:43.274Z,51.90
2018-09-28T05:54:13.291Z,51.10
2018-09-28T05:56:44.025Z,51.20
2018-09-28T05:59:19.643Z,51.20
2018-09-28T06:01:57.645Z,51.30
2018-09-28T06:04:36.973Z,51.20
2018-09-28T06:07:09.317Z,51.20
2018-09-28T06:09:45.207Z,50.90
2018-09-28T06:12:21.323Z,50.90
2018-09-28T06:14:52.495Z,50.80
2018-09-28T06:17:26.010Z,50.70
2018-09-28T06:19:59.777Z,50.50
2018-09-28T06:22:33.769Z,50.40
2018-09-28T06:25:03.891Z,50.20
2018-09-28T06:27:36.980Z,50.00
2018-09-28T06:30:17.191Z,49.90
2018-09-28T06:32:48.186Z,49.90
2018-09-28T06:35:18.643Z,49.90
2018-09-28T06:37:50.635Z,49.80
2018-09-28T06:40:22.417Z,49.80
2018-09-28T06:43:04.692Z,49.70
2018-09-28T06:45:40.361Z,49.70
2018-09-28T06:48:15.683Z,49.60
2018-09-28T06:50:45.730Z,49.70
2018-09-28T06:55:59.098Z,49.90
2018-09-28T06:58:34.127Z,50.00
2018-09-28T07:01:04.217Z,50.10
2018-09-28T07:03:35.070Z,50.10
2018-09-28T07:06:09.071Z,50.30
2018-09-28T07:08:39.154Z,50.40
2018-09-28T07:11:09.669Z,50.50
2018-09-28T07:13:40.301Z,50.60
2018-09-28T07:16:11.608Z,50.70
2018-09-28T07:18:42.561Z,50.90
2018-09-28T07:21:18.588Z,51.00
2018-09-28T07:23:50.580Z,51.10
2018-09-28T07:26:22.149Z,51.10
2018-09-28T07:28:55.604Z,51.20
2018-09-28T07:31:35.929Z,51.40
2018-09-28T07:34:07.018Z,51.40
2018-09-28T07:36:38.257Z,51.50
2018-09-28T07:39:12.832Z,51.60
2018-09-28T07:41:44.657Z,51.80
2018-09-28T07:44:15.617Z,51.80
2018-09-28T07:47:11.703Z,51.90
2018-09-28T07:49:58.459Z,52.10
2018-09-28T07:52:31.248Z,52.20
2018-09-28T07:55:03.103Z,52.30
2018-09-28T07:58:04.764Z,52.40
2018-09-28T08:00:39.337Z,52.40
2018-09-28T08:03:13.427Z,52.50
2018-09-28T08:05:47.637Z,52.60
2018-09-28T08:08:19.099Z,52.90
2018-09-28T08:10:52.315Z,53.10
2018-09-28T08:14:03.972Z,53.40
2018-09-28T08:19:29.198Z,53.80
2018-09-28T08:22:03.215Z,54.10
2018-09-28T08:24:36.965Z,55.90
2018-09-28T08:27:13.503Z,58.00
2018-09-28T08:29:48.549Z,59.40
2018-09-28T08:32:29.088Z,61.00
2018-09-28T08:35:02.396Z,62.40
2018-09-28T08:37:42.105Z,63.70
2018-09-28T08:40:24.000Z,65.00
2018-09-28T08:42:57.813Z,65.90
2018-09-28T08:45:40.007Z,67.00
2018-09-28T09:25:54.193Z,68.70
2018-09-28T09:28:33.750Z,69.90
2018-09-28T09:31:50.010Z,70.80
2018-09-28T09:34:41.414Z,71.50
2018-09-28T09:37:15.379Z,72.00
2018-09-28T09:39:56.624Z,72.50
2018-09-28T10:20:27.970Z,72.10
2018-09-28T10:23:05.742Z,72.10
2018-09-28T10:25:47.540Z,72.00
2018-09-28T10:28:23.040Z,72.20
2018-09-28T10:31:00.268Z,72.20
2018-09-28T10:33:38.663Z,72.30
2018-09-28T10:36:18.669Z,72.40
2018-09-28T10:39:00.045Z,72.70
2018-09-28T10:41:33.538Z,72.90
2018-09-28T10:44:07.645Z,73.10
2018-09-28T10:46:39.238Z,72.80
2018-09-28T10:51:48.661Z,71.40
2018-09-28T10:54:21.224Z,71.00
2018-09-28T10:56:56.275Z,70.70
2018-09-28T10:59:28.544Z,70.30
2018-09-28T11:02:01.625Z,70.00
2018-09-28T11:04:39.579Z,69.90
2018-09-28T11:07:10.474Z,69.80
2018-09-28T11:09:47.822Z,69.90
2018-09-28T11:12:20.462Z,69.60
2018-09-28T11:14:51.470Z,69.60
2018-09-28T11:17:34.290Z,68.80
2018-09-28T11:20:08.198Z,68.20
2018-09-28T11:22:40.500Z,68.10
2018-09-28T11:25:20.767Z,67.50
2018-09-28T11:41:52.322Z,63.50
2018-09-28T11:47:58.858Z,58.00
2018-09-28T11:50:35.054Z,56.50
2018-09-28T11:53:14.549Z,55.40
2018-09-28T11:55:50.450Z,54.10
2018-09-28T11:58:31.089Z,52.70
2018-09-28T12:01:29.432Z,51.50
2018-09-28T12:04:05.289Z,50.40
2018-09-28T12:06:45.382Z,49.60
2018-09-28T12:09:20.127Z,49.10
2018-09-28T12:12:00.750Z,48.50
2018-09-28T12:17:43.435Z,47.30
2018-09-28T12:20:14.813Z,46.50
2018-09-28T12:22:51.951Z,45.60
2018-09-28T12:25:25.864Z,45.20
2018-09-28T12:27:56.383Z,45.00
2018-09-28T12:30:33.425Z,44.80
2018-09-28T12:33:07.527Z,44.70
2018-09-28T12:35:49.161Z,44.60
2018-09-28T12:38:26.532Z,44.20
2018-09-28T12:41:02.671Z,43.70
2018-09-28T12:45:07.833Z,43.50
2018-09-28T12:47:46.025Z,43.00
2018-09-28T12:50:21.749Z,42.80
2018-09-28T12:52:59.376Z,42.80
2018-09-28T12:55:30.496Z,43.20
2018-09-28T12:58:05.723Z,43.50
2018-09-28T13:00:50.699Z,43.80
2018-09-28T13:03:27.354Z,43.80
2018-09-28T13:06:14.079Z,43.30
2018-09-28T13:08:58.273Z,43.10
2018-09-28T13:11:42.409Z,42.70
2018-09-28T13:14:25.346Z,42.10
2018-09-28T13:17:53.463Z,42.00
2018-09-28T13:21:06.766Z,42.10
2018-09-28T13:23:51.485Z,41.70
2018-09-28T13:26:37.170Z,40.90
2018-09-28T13:29:26.162Z,40.30
2018-09-28T13:32:09.364Z,39.70
2018-09-28T13:34:42.821Z,39.30
2018-09-28T13:37:27.721Z,38.70
2018-09-28T13:43:26.103Z,38.10
2018-09-28T13:46:01.421Z,37.60
2018-09-28T13:48:36.083Z,37.70
2018-09-28T13:51:14.965Z,37.70
2018-09-28T13:53:55.636Z,37.80
2018-09-28T13:57:20.798Z,38.10
2018-09-28T13:59:57.974Z,38.50
2018-09-28T14:02:29.255Z,38.60
2018-09-28T14:05:33.898Z,38.90
2018-09-28T14:09:11.795Z,39.10
2018-09-28T14:12:10.030Z,39.50
2018-09-28T14:14:51.387Z,39.80
2018-09-28T14:17:42.362Z,40.10
2018-09-28T14:20:26.481Z,40.40
2018-09-28T14:26:53.512Z,40.40
2018-09-28T14:29:40.674Z,40.00
2018-09-28T14:35:01.731Z,39.90
2018-09-28T14:37:38.274Z,39.90
2018-09-28T14:43:07.635Z,40.20
2018-09-28T14:45:59.648Z,40.20
2018-09-28T14:48:37.930Z,40.10
2018-09-28T14:51:12.329Z,40.00
2018-09-28T14:56:47.524Z,39.80
2018-09-28T14:59:25.855Z,39.70
2018-09-28T15:02:21.044Z,39.70
2018-09-28T15:04:58.011Z,38.90
2018-09-28T15:07:52.844Z,38.40
2018-09-28T15:10:23.158Z,38.30
2018-09-28T15:13:18.267Z,38.20
2018-09-28T15:15:52.150Z,38.10
2018-09-28T15:18:26.859Z,38.30
2018-09-28T15:27:02.319Z,38.40
2018-09-28T15:29:36.684Z,38.10
2018-09-28T15:32:07.809Z,38.00
2018-09-28T15:34:41.045Z,38.10
2018-09-28T15:40:55.142Z,37.90
2018-09-28T15:57:09.558Z,37.70
2018-09-28T15:59:54.534Z,37.60
2018-09-28T16:03:05.555Z,37.40
2018-09-28T16:09:13.635Z,35.60
2018-09-28T18:33:15.364Z,39.60
2018-09-28T18:40:08.304Z,40.20
2018-09-28T18:42:55.400Z,40.40
2018-09-28T19:17:28.354Z,42.40
2018-09-28T19:20:14.670Z,42.30
2018-09-28T19:22:58.100Z,42.70
2018-09-28T19:25:31.074Z,43.10
2018-09-28T19:28:32.899Z,43.40
2018-09-28T19:42:19.895Z,43.70
2018-09-28T19:44:59.230Z,43.80
2018-09-28T19:47:32.670Z,44.10
2018-09-28T19:50:05.329Z,44.10
2018-09-28T19:52:43.449Z,44.10
2018-09-28T19:55:16.221Z,44.20
2018-09-28T19:57:47.688Z,44.50
2018-09-28T20:00:21.614Z,44.70
2018-09-28T20:06:08.864Z,45.20
2018-09-28T20:08:55.016Z,45.30
2018-09-28T20:17:07.463Z,45.80
2018-09-28T20:20:01.465Z,46.10
2018-09-28T20:22:46.746Z,46.40
2018-09-28T20:25:25.204Z,46.90
2018-09-28T20:31:11.173Z,47.30
2018-09-28T20:33:53.051Z,47.30
2018-09-28T20:36:25.611Z,47.40
2018-09-28T20:41:42.946Z,47.70
2018-09-28T20:47:31.941Z,47.80
2018-09-28T20:50:19.871Z,48.00
2018-09-28T20:53:07.045Z,48.00
2018-09-28T20:55:40.176Z,48.00
2018-09-28T20:58:19.029Z,47.80
2018-09-28T21:01:06.017Z,47.90
2018-09-28T21:03:39.854Z,48.20
2018-09-28T21:06:38.965Z,48.40
2018-09-28T21:09:39.127Z,48.70
2018-09-28T21:12:17.437Z,48.60
2018-09-28T21:15:00.011Z,49.20
2018-09-28T21:17:47.440Z,48.90
2018-09-28T21:20:28.549Z,49.20
2018-09-28T21:23:06.289Z,49.40
2018-09-28T21:25:39.655Z,49.50
2018-09-28T21:28:10.003Z,49.80
2018-09-28T21:31:11.572Z,50.00
2018-09-28T21:34:09.023Z,50.10
2018-09-28T21:37:15.473Z,50.30
2018-09-28T21:40:12.210Z,50.20
2018-09-28T21:42:48.690Z,49.70
2018-09-28T21:45:32.546Z,49.20
2018-09-28T21:48:16.329Z,48.90
2018-09-28T23:04:25.708Z,49.10
2018-09-28T23:07:07.809Z,49.10
2018-09-28T23:09:49.529Z,49.50
2018-09-28T23:25:58.389Z,49.90
2018-09-28T23:28:40.834Z,49.80
2018-09-28T23:31:23.728Z,50.20
2018-09-28T23:33:59.175Z,50.50
2018-09-28T23:36:34.718Z,50.60
